Time;durP1;ratioP1;P1;durP2;ratioP2;P2;SDS_P1;SDS_P2;PMS_P1;PMS_P2;Temp;Humidity;BMP_temperature;BMP_pressure;BME280_temperature;BME280_humidity;BME280_pressure;Samples;Min_cycle;Max_cycle;Signal;HPM_P1;HPM_P2
2021/12/22 00:00:22;;;;;;;;;59.25;48.00;;;;;0.12;81.21;101490.81;5054936;28;45335;-66
2021/12/22 00:02:48;;;;;;;;;64.50;50.50;;;;;0.05;81.17;101503.59;5041989;28;45668;-67
2021/12/22 00:05:20;;;;;;;;;67.50;48.50;;;;;-0.04;80.88;101493.94;5043327;28;46069;-68
2021/12/22 00:07:46;;;;;;;;;58.25;44.25;;;;;-0.10;81.17;101501.59;5052703;28;45446;-67
2021/12/22 00:10:13;;;;;;;;;56.00;43.00;;;;;-0.15;81.50;101494.63;5042407;28;45333;-69
2021/12/22 00:12:38;;;;;;;;;64.25;47.25;;;;;-0.16;81.69;101505.81;5057326;28;45493;-59
2021/12/22 00:15:05;;;;;;;;;62.00;48.00;;;;;-0.18;82.03;101501.47;5062557;28;45927;-66
2021/12/22 00:17:31;;;;;;;;;60.50;46.75;;;;;-0.22;81.37;101492.75;5062186;28;45280;-63
2021/12/22 00:19:57;;;;;;;;;48.00;36.25;;;;;-0.34;81.84;101479.59;5043387;28;45300;-67
2021/12/22 00:22:23;;;;;;;;;64.75;47.00;;;;;-0.31;82.08;101484.84;5063000;28;45240;-68
2021/12/22 00:24:48;;;;;;;;;63.25;48.25;;;;;-0.33;82.25;101491.69;5046539;28;47925;-68
2021/12/22 00:27:14;;;;;;;;;67.50;48.00;;;;;-0.35;82.46;101483.03;5047165;28;45478;-69
2021/12/22 00:29:41;;;;;;;;;60.50;45.25;;;;;-0.38;82.34;101480.38;5055159;28;45404;-60
2021/12/22 00:32:11;;;;;;;;;58.25;46.25;;;;;-0.46;82.52;101470.78;5058727;28;45660;-69
2021/12/22 00:34:51;;;;;;;;;68.00;47.25;;;;;-0.46;82.76;101475.09;5041262;28;46220;-69
2021/12/22 00:37:20;;;;;;;;;56.25;43.75;;;;;-0.55;82.82;101461.94;5038951;28;45368;-68
2021/12/22 00:39:46;;;;;;;;;64.75;44.00;;;;;-0.50;82.47;101481.88;5038707;28;45384;-67
2021/12/22 00:42:13;;;;;;;;;63.50;45.50;;;;;-0.50;82.77;101478.44;5020659;28;45323;-69
2021/12/22 00:44:39;;;;;;;;;55.25;45.50;;;;;-0.48;82.59;101471.59;5062612;28;46246;-69
2021/12/22 00:47:05;;;;;;;;;57.25;43.50;;;;;-0.45;82.79;101488.03;5080515;27;45248;-68
2021/12/22 00:49:31;;;;;;;;;58.50;46.25;;;;;-0.43;83.13;101477.72;5080511;28;45444;-67
2021/12/22 00:51:56;;;;;;;;;56.50;42.25;;;;;-0.41;83.28;101477.75;5082196;28;45366;-62
2021/12/22 00:54:21;;;;;;;;;59.50;45.00;;;;;-0.40;83.13;101482.06;5078222;28;45478;-66
2021/12/22 00:56:47;;;;;;;;;52.50;42.00;;;;;-0.37;83.09;101483.03;5079593;27;45374;-66
2021/12/22 00:59:12;;;;;;;;;60.50;44.50;;;;;-0.31;82.99;101490.88;5078863;28;45354;-68
2021/12/22 01:01:38;;;;;;;;;57.25;42.25;;;;;-0.28;82.85;101477.13;5078638;27;45383;-64
2021/12/22 01:04:03;;;;;;;;;56.00;41.25;;;;;-0.31;83.26;101477.06;5078974;27;46005;-68
2021/12/22 01:06:29;;;;;;;;;60.50;43.50;;;;;-0.27;82.69;101476.28;5079257;27;45440;-66
2021/12/22 01:08:54;;;;;;;;;62.00;41.75;;;;;-0.21;82.98;101479.00;5082296;27;45329;-68
2021/12/22 01:11:20;;;;;;;;;55.00;40.50;;;;;-0.20;82.84;101475.56;5084361;28;45558;-68
2021/12/22 01:13:45;;;;;;;;;56.00;44.50;;;;;-0.12;83.02;101483.47;5078894;27;45342;-69
2021/12/22 01:16:11;;;;;;;;;59.25;40.25;;;;;-0.09;82.33;101477.47;5079509;28;45311;-68
2021/12/22 01:18:36;;;;;;;;;58.75;43.75;;;;;-0.02;82.37;101479.31;5079880;28;45365;-66
2021/12/22 01:23:47;;;;;;;;;47.00;39.25;;;;;0.06;82.24;101482.06;5080648;28;45465;-67
2021/12/22 01:26:13;;;;;;;;;51.75;41.00;;;;;0.13;81.97;101484.81;5068511;28;45251;-63
2021/12/22 01:28:42;;;;;;;;;56.50;40.00;;;;;0.18;82.18;101484.00;5081987;28;45378;-67
2021/12/22 01:31:13;;;;;;;;;50.75;37.50;;;;;0.19;81.74;101480.56;5079599;28;45537;-66
2021/12/22 01:33:38;;;;;;;;;51.50;38.00;;;;;0.18;81.81;101482.28;5079060;28;47384;-66
2021/12/22 01:36:04;;;;;;;;;49.75;40.00;;;;;0.13;81.18;101452.88;5079865;27;45233;-67
2021/12/22 01:38:30;;;;;;;;;48.75;40.00;;;;;0.18;81.56;101469.34;5081902;28;45238;-68
2021/12/22 01:40:55;;;;;;;;;49.25;39.00;;;;;0.22;81.76;101465.09;5079146;28;45417;-66
2021/12/22 01:43:20;;;;;;;;;58.00;44.50;;;;;0.24;81.29;101458.22;5078772;27;46106;-67
2021/12/22 01:51:54;;;;;;;;;56.00;40.00;;;;;0.36;81.75;101473.97;5084534;28;45328;-67
2021/12/22 01:54:19;;;;;;;;;57.75;42.00;;;;;0.41;81.30;101467.16;5081007;27;46163;-68
2021/12/22 01:56:49;;;;;;;;;56.25;42.00;;;;;0.43;81.36;101455.09;5078164;28;45259;-64
2021/12/22 01:59:14;;;;;;;;;58.00;41.75;;;;;0.51;81.14;101460.38;5078646;27;45264;-61
2021/12/22 02:01:40;;;;;;;;;55.25;39.75;;;;;0.45;81.24;101449.06;5079492;28;45406;-66
2021/12/22 02:04:10;;;;;;;;;53.50;40.00;;;;;0.48;80.97;101449.13;5081104;28;45315;-63
2021/12/22 02:06:40;;;;;;;;;49.50;39.00;;;;;0.54;80.91;101459.56;5083117;27;45379;-66
2021/12/22 02:09:08;;;;;;;;;55.50;40.25;;;;;0.55;81.05;101459.59;5081212;28;45500;-67
2021/12/22 02:11:33;;;;;;;;;54.75;40.00;;;;;0.57;81.17;101463.09;5078791;28;45536;-68
2021/12/22 02:14:02;;;;;;;;;52.00;39.00;;;;;0.60;80.87;101457.06;5076659;27;46334;-65
2021/12/22 02:16:33;;;;;;;;;42.00;32.25;;;;;0.64;80.76;101463.19;5076766;28;45513;-64
2021/12/22 02:19:01;;;;;;;;;47.00;39.25;;;;;0.62;80.62;101455.38;5077116;28;45255;-66
2021/12/22 02:21:30;;;;;;;;;47.75;38.25;;;;;0.67;80.56;101461.50;5079857;28;45247;-68
2021/12/22 02:23:56;;;;;;;;;56.50;39.75;;;;;0.68;80.38;101457.19;5079440;28;46379;-68
2021/12/22 02:26:33;;;;;;;;;57.00;39.75;;;;;0.72;80.69;101462.44;5076315;28;45348;-68
2021/12/22 02:29:05;;;;;;;;;59.50;41.00;;;;;0.78;80.40;101466.84;5076694;28;45265;-61
2021/12/22 02:31:38;;;;;;;;;50.25;38.50;;;;;0.80;80.18;101459.09;5076978;28;45420;-66
2021/12/22 02:34:03;;;;;;;;;59.00;39.50;;;;;0.83;79.95;101460.00;5077754;28;46082;-66
2021/12/22 02:36:35;;;;;;;;;49.50;37.50;;;;;0.82;79.67;101458.28;5076318;27;45342;-67
2021/12/22 02:39:01;;;;;;;;;50.00;36.00;;;;;0.85;79.73;101462.59;5076275;27;45287;-65
2021/12/22 02:41:30;;;;;;;;;47.00;37.50;;;;;0.84;79.90;101456.56;5076541;28;45244;-67
2021/12/22 02:43:58;;;;;;;;;46.00;37.00;;;;;0.56;79.64;101414.75;5075933;28;46330;-65
2021/12/22 02:46:27;;;;;;;;;44.00;38.00;;;;;0.56;79.68;101406.09;5076778;28;45206;-68
2021/12/22 02:48:54;;;;;;;;;54.00;40.25;;;;;0.83;79.76;101448.75;5077973;27;45332;-62
2021/12/22 02:51:21;;;;;;;;;54.50;38.50;;;;;0.86;79.73;101444.50;5078697;28;45389;-66
2021/12/22 02:54:01;;;;;;;;;46.50;36.50;;;;;0.83;79.55;101439.28;5076517;27;45998;-67
2021/12/22 02:56:53;;;;;;;;;48.25;37.00;;;;;0.90;79.32;101449.72;5077799;28;45243;-65
2021/12/22 03:04:41;;;;;;;;;49.00;39.50;;;;;0.88;79.05;101454.88;5076328;27;45385;-67
2021/12/22 03:07:13;;;;;;;;;54.75;39.50;;;;;0.86;79.33;101443.63;5076294;27;45434;-66
2021/12/22 03:09:38;;;;;;;;;50.00;37.00;;;;;0.92;79.13;101438.53;5080470;28;45232;-67
2021/12/22 03:12:06;;;;;;;;;53.50;38.50;;;;;0.91;79.23;101439.38;5077820;28;45526;-69
2021/12/22 03:14:33;;;;;;;;;49.75;38.50;;;;;0.90;79.10;101442.81;5076207;28;46527;-68
2021/12/22 03:16:59;;;;;;;;;46.75;37.25;;;;;0.87;79.02;101437.59;5076457;28;45325;-64
2021/12/22 03:19:30;;;;;;;;;51.50;40.00;;;;;1.00;79.39;101454.19;5075682;28;45423;-65
2021/12/22 03:22:03;;;;;;;;;55.50;42.50;;;;;0.99;78.76;101444.69;5081065;28;45337;-70
2021/12/22 03:24:31;;;;;;;;;49.50;38.00;;;;;0.99;78.37;101442.09;5087579;27;46124;-67
2021/12/22 03:27:01;;;;;;;;;51.75;35.50;;;;;0.96;79.06;101435.13;5085304;27;45211;-68
2021/12/22 03:29:27;;;;;;;;;45.25;37.50;;;;;0.96;78.69;101448.09;5075627;28;45312;-67
2021/12/22 03:31:52;;;;;;;;;47.00;38.50;;;;;0.98;78.44;101448.97;5076209;28;45283;-66
2021/12/22 03:34:17;;;;;;;;;44.50;36.00;;;;;0.96;78.28;101450.66;5075798;27;46077;-65
2021/12/22 03:36:44;;;;;;;;;45.00;37.75;;;;;0.93;78.81;101440.28;5076856;27;45309;-65
2021/12/22 03:39:13;;;;;;;;;49.25;40.00;;;;;0.92;78.65;101443.72;5080121;28;45210;-67
2021/12/22 03:41:39;;;;;;;;;52.25;38.50;;;;;0.90;78.67;101439.38;5080062;28;45307;-62
2021/12/22 03:44:06;;;;;;;;;47.25;36.50;;;;;0.90;78.80;101432.44;5079881;27;46588;-68
2021/12/22 03:46:32;;;;;;;;;56.75;39.25;;;;;0.91;78.70;101434.19;5080921;27;45426;-69
2021/12/22 03:48:58;;;;;;;;;56.75;42.25;;;;;0.91;78.49;101428.16;5092037;28;45380;-66
2021/12/22 03:51:24;;;;;;;;;57.00;43.25;;;;;0.90;78.69;101429.88;5087782;27;45170;-65
2021/12/22 03:53:50;;;;;;;;;54.25;39.00;;;;;0.90;78.83;101434.19;5079550;27;46340;-64
2021/12/22 03:56:16;;;;;;;;;51.75;42.25;;;;;0.89;78.95;101443.66;5081233;28;45272;-66
2021/12/22 03:58:41;;;;;;;;;49.25;39.75;;;;;0.90;78.64;101440.22;5081036;28;45211;-66
2021/12/22 04:01:06;;;;;;;;;52.00;39.00;;;;;0.90;78.64;101442.81;5080221;27;45239;-66
2021/12/22 04:03:34;;;;;;;;;47.50;39.00;;;;;0.92;78.41;101443.72;5080978;28;45516;-62
2021/12/22 04:06:00;;;;;;;;;47.50;34.50;;;;;0.84;77.96;101427.19;5079219;28;45422;-64
2021/12/22 04:08:25;;;;;;;;;47.50;34.25;;;;;0.89;78.14;101440.22;5079171;27;45769;-67
2021/12/22 04:10:51;;;;;;;;;50.25;36.75;;;;;0.84;78.14;101430.66;5079169;27;45514;-62
2021/12/22 04:13:17;;;;;;;;;47.00;38.00;;;;;0.71;77.70;101416.66;5080609;28;45487;-65
2021/12/22 04:15:44;;;;;;;;;50.75;39.00;;;;;0.74;78.56;101423.63;5079470;27;45263;-69
2021/12/22 04:18:11;;;;;;;;;49.50;39.00;;;;;0.50;78.37;101375.78;5080700;28;45322;-64
2021/12/22 04:20:37;;;;;;;;;47.00;39.00;;;;;0.79;78.43;101416.78;5078738;27;45592;-69
2021/12/22 04:23:03;;;;;;;;;48.25;38.25;;;;;0.78;78.46;101414.16;5078567;28;45484;-68
2021/12/22 04:25:29;;;;;;;;;55.75;41.75;;;;;0.75;78.58;101407.22;5079122;27;45344;-68
2021/12/22 04:28:07;;;;;;;;;46.75;36.50;;;;;0.82;78.10;101410.75;5079176;28;45288;-64
2021/12/22 04:30:35;;;;;;;;;55.25;39.50;;;;;0.84;78.63;101414.25;5078639;28;45394;-68
2021/12/22 04:33:02;;;;;;;;;48.00;37.50;;;;;0.87;78.69;101424.66;5081187;27;46122;-68
2021/12/22 04:35:28;;;;;;;;;50.50;39.00;;;;;0.92;78.67;101429.91;5079320;28;45409;-64
2021/12/22 04:37:54;;;;;;;;;50.50;40.00;;;;;0.94;78.64;101426.47;5079504;27;45341;-68
2021/12/22 04:40:20;;;;;;;;;42.00;36.50;;;;;0.99;78.58;101426.53;5080466;27;45482;-69
2021/12/22 04:42:46;;;;;;;;;45.75;38.75;;;;;1.00;78.17;101429.13;5081435;28;46506;-69
2021/12/22 04:45:13;;;;;;;;;51.25;40.00;;;;;1.01;78.04;101425.69;5078211;27;45444;-68
2021/12/22 04:47:38;;;;;;;;;44.50;34.00;;;;;1.00;78.10;101428.28;5078467;28;45343;-67
2021/12/22 04:50:13;;;;;;;;;46.50;38.00;;;;;1.00;77.98;101431.72;5078665;28;45446;-68
2021/12/22 04:52:47;;;;;;;;;55.50;39.50;;;;;1.03;78.38;101430.91;5083050;28;46435;-66
2021/12/22 04:55:13;;;;;;;;;44.00;36.00;;;;;1.04;77.95;101431.75;5083298;28;45788;-64
2021/12/22 04:57:38;;;;;;;;;57.00;37.00;;;;;1.04;77.87;101448.19;5078339;28;45280;-65
2021/12/22 05:00:06;;;;;;;;;52.25;37.00;;;;;1.06;77.86;101437.84;5078635;28;45243;-69
2021/12/22 05:02:32;;;;;;;;;53.50;39.50;;;;;1.09;78.09;101435.31;5077549;28;45476;-64
2021/12/22 05:04:57;;;;;;;;;45.00;36.25;;;;;1.09;77.22;101437.91;5077919;27;45309;-67
2021/12/22 05:07:22;;;;;;;;;49.25;37.50;;;;;1.08;77.34;101437.03;5078012;27;45304;-68
2021/12/22 05:09:48;;;;;;;;;47.00;36.75;;;;;1.11;77.13;101429.28;5076572;27;45465;-66
2021/12/22 05:12:13;;;;;;;;;46.50;37.50;;;;;1.13;76.98;101426.72;5077589;28;45345;-67
2021/12/22 05:14:44;;;;;;;;;49.25;37.75;;;;;1.11;76.73;101425.84;5077796;28;45480;-66
2021/12/22 05:17:18;;;;;;;;;53.50;39.75;;;;;1.06;76.52;101424.88;5077636;28;45293;-66
2021/12/22 05:19:43;;;;;;;;;49.75;39.50;;;;;1.02;77.29;101413.63;5077745;28;45257;-68
2021/12/22 05:22:08;;;;;;;;;54.75;40.00;;;;;0.92;76.94;101389.31;5077440;27;46204;-67
2021/12/22 05:24:34;;;;;;;;;46.00;36.75;;;;;0.98;76.63;101407.53;5079186;27;45280;-67
2021/12/22 05:26:59;;;;;;;;;52.00;38.25;;;;;0.95;76.81;101406.63;5078883;28;45663;-66
2021/12/22 05:29:24;;;;;;;;;55.75;39.75;;;;;0.91;76.97;101403.09;5082790;28;45598;-59
2021/12/22 05:31:54;;;;;;;;;54.25;41.00;;;;;0.91;76.89;101408.28;5078522;27;47123;-66
2021/12/22 05:34:20;;;;;;;;;59.00;39.75;;;;;0.90;77.32;101405.69;5077560;28;45438;-67
2021/12/22 05:36:46;;;;;;;;;42.00;37.00;;;;;0.90;77.40;101414.31;5078475;28;45330;-66
2021/12/22 05:39:11;;;;;;;;;46.50;35.50;;;;;0.91;77.42;101407.44;5077821;28;45618;-63
2021/12/22 05:41:37;;;;;;;;;50.50;40.00;;;;;0.92;77.70;101402.25;5077414;28;46060;-69
2021/12/22 05:44:02;;;;;;;;;56.25;39.75;;;;;0.94;77.77;101413.50;5076984;28;45239;-68
2021/12/22 05:46:28;;;;;;;;;54.00;40.25;;;;;0.94;77.92;101403.16;5077322;28;45385;-64
2021/12/22 05:48:53;;;;;;;;;57.25;39.75;;;;;0.99;77.59;101411.84;5079182;28;45166;-62
2021/12/22 05:51:19;;;;;;;;;52.50;40.50;;;;;1.04;77.51;101417.09;5077349;28;46306;-67
2021/12/22 05:53:44;;;;;;;;;57.75;42.00;;;;;1.07;77.81;101416.28;5077627;28;45310;-66
2021/12/22 05:56:12;;;;;;;;;48.75;36.50;;;;;1.08;77.63;101408.53;5078267;27;45346;-67
2021/12/22 05:58:37;;;;;;;;;52.00;36.50;;;;;1.14;78.29;101415.50;5083142;28;45330;-63
2021/12/22 06:01:02;;;;;;;;;52.75;39.75;;;;;1.14;77.23;101423.28;5080327;28;45310;-68
2021/12/22 06:03:28;;;;;;;;;50.25;39.50;;;;;1.14;77.59;101424.13;5076876;27;45394;-68
2021/12/22 06:05:53;;;;;;;;;50.50;37.50;;;;;1.16;77.76;101417.25;5077480;28;45353;-67
2021/12/22 06:08:18;;;;;;;;;52.25;39.50;;;;;1.14;77.08;101429.31;5077600;28;45471;-69
2021/12/22 06:10:44;;;;;;;;;50.25;39.75;;;;;1.10;77.20;101432.72;5081584;28;45329;-68
2021/12/22 06:13:10;;;;;;;;;54.00;40.00;;;;;1.12;77.27;101440.53;5087375;27;45268;-68
2021/12/22 06:15:38;;;;;;;;;48.25;37.50;;;;;1.16;77.85;101442.31;5087418;28;45350;-67
2021/12/22 06:18:04;;;;;;;;;49.00;39.50;;;;;1.20;77.18;101425.94;5079480;27;45496;-66
2021/12/22 06:20:31;;;;;;;;;48.00;40.00;;;;;1.18;76.84;101425.06;5077764;28;46055;-68
2021/12/22 06:22:57;;;;;;;;;48.00;38.75;;;;;1.15;77.30;101419.84;5076406;28;45438;-62
2021/12/22 06:25:23;;;;;;;;;58.75;42.00;;;;;1.14;77.25;101429.31;5076826;28;45415;-66
2021/12/22 06:27:49;;;;;;;;;51.50;40.00;;;;;1.18;77.68;101425.06;5076978;27;45299;-68
2021/12/22 06:30:14;;;;;;;;;51.50;40.00;;;;;1.21;77.30;101419.03;5076598;28;46025;-68
2021/12/22 06:32:40;;;;;;;;;52.75;40.25;;;;;1.14;76.40;101412.91;5076452;28;45427;-68
2021/12/22 06:35:06;;;;;;;;;51.75;38.75;;;;;1.13;76.92;101414.63;5077715;28;45638;-69
2021/12/22 06:37:32;;;;;;;;;49.00;34.75;;;;;1.23;77.13;101422.50;5078204;27;45509;-67
2021/12/22 06:39:57;;;;;;;;;55.50;43.00;;;;;1.26;76.56;101423.44;5077631;28;45370;-64
2021/12/22 06:42:23;;;;;;;;;48.25;38.50;;;;;1.27;76.35;101416.50;5078255;27;45216;-67
2021/12/22 06:44:49;;;;;;;;;55.00;38.00;;;;;1.25;75.85;101420.81;5076725;28;45351;-69
2021/12/22 06:47:15;;;;;;;;;43.50;35.25;;;;;1.20;75.72;101422.47;5076808;27;45300;-68
2021/12/22 06:49:40;;;;;;;;;52.25;38.25;;;;;1.09;75.48;101420.63;5076327;27;45742;-68
2021/12/22 06:52:06;;;;;;;;;50.00;38.75;;;;;0.99;75.67;101431.72;5076069;28;45254;-68
2021/12/22 06:54:31;;;;;;;;;52.75;38.75;;;;;0.99;75.75;101437.75;5076604;28;45233;-62
2021/12/22 06:56:57;;;;;;;;;52.50;38.00;;;;;0.95;75.65;101446.34;5078222;27;45614;-66
2021/12/22 06:59:22;;;;;;;;;41.00;35.50;;;;;0.96;76.09;101444.63;5079096;28;45355;-68
2021/12/22 07:01:50;;;;;;;;;55.50;41.75;;;;;0.96;76.21;101439.44;5079278;27;45365;-69
2021/12/22 07:04:15;;;;;;;;;56.25;41.75;;;;;0.94;76.14;101438.56;5078677;28;45350;-68
2021/12/22 07:06:40;;;;;;;;;54.75;39.75;;;;;0.88;76.32;101439.34;5079270;28;45431;-68
2021/12/22 07:09:07;;;;;;;;;53.00;40.00;;;;;0.83;76.67;101441.00;5079148;28;46191;-69
2021/12/22 07:11:34;;;;;;;;;56.25;41.50;;;;;0.83;77.03;101441.88;5077334;28;45336;-69
2021/12/22 07:14:01;;;;;;;;;59.50;42.50;;;;;0.89;77.32;101430.72;5077728;28;45293;-67
2021/12/22 07:16:27;;;;;;;;;72.50;55.00;;;;;0.96;77.57;101437.72;5078771;28;45312;-67
2021/12/22 07:18:53;;;;;;;;;50.00;34.50;;;;;1.04;77.18;101427.47;5080014;27;45403;-66
2021/12/22 07:21:18;;;;;;;;;56.75;43.00;;;;;1.10;77.49;101424.09;5078568;27;45311;-69
2021/12/22 07:23:44;;;;;;;;;61.25;42.75;;;;;1.15;76.62;101418.09;5076972;28;45826;-66
2021/12/22 07:26:13;;;;;;;;;55.00;42.25;;;;;1.15;75.97;101428.47;5076779;27;45263;-66
2021/12/22 07:28:42;;;;;;;;;51.75;39.00;;;;;1.13;75.66;101424.13;5076307;27;47324;-65
2021/12/22 07:31:08;;;;;;;;;53.25;40.25;;;;;1.10;75.47;101426.69;5075777;28;45454;-66
2021/12/22 07:33:33;;;;;;;;;47.75;39.50;;;;;1.08;76.18;101428.41;5075887;28;45267;-66
2021/12/22 07:36:01;;;;;;;;;57.50;42.25;;;;;1.02;75.66;101435.22;5076304;28;45525;-68
2021/12/22 07:38:38;;;;;;;;;61.00;41.00;;;;;0.98;75.78;101435.16;5075963;28;46248;-66
2021/12/22 07:41:06;;;;;;;;;48.50;36.25;;;;;0.98;75.99;101430.84;5076147;28;45311;-66
2021/12/22 07:43:32;;;;;;;;;51.50;40.25;;;;;0.98;76.02;101427.38;5058421;28;45446;-64
2021/12/22 07:45:57;;;;;;;;;56.25;40.25;;;;;0.98;76.48;101417.88;5079560;27;45529;-66
2021/12/22 07:48:23;;;;;;;;;54.00;40.50;;;;;1.02;75.90;101424.00;5078175;28;45977;-68
2021/12/22 07:50:48;;;;;;;;;59.50;43.50;;;;;1.08;75.67;101426.66;5059162;28;45343;-66
2021/12/22 07:53:14;;;;;;;;;43.50;35.75;;;;;1.04;75.53;101435.25;5078647;28;45283;-70
2021/12/22 07:55:39;;;;;;;;;52.50;39.50;;;;;1.00;75.58;101433.47;5078699;28;45560;-68
2021/12/22 07:58:07;;;;;;;;;55.75;41.50;;;;;0.92;76.19;101419.53;5076851;27;45824;-68
2021/12/22 08:00:33;;;;;;;;;50.00;39.50;;;;;0.99;75.53;101434.31;5076145;28;45339;-66
2021/12/22 08:02:58;;;;;;;;;58.75;42.25;;;;;0.92;75.74;101428.16;5076319;28;45238;-63
2021/12/22 08:05:24;;;;;;;;;57.50;39.75;;;;;0.92;75.87;101438.53;5076050;27;45300;-69
2021/12/22 08:07:49;;;;;;;;;54.50;40.00;;;;;0.86;76.10;101447.09;5074135;28;46170;-66
2021/12/22 08:10:16;;;;;;;;;53.50;39.75;;;;;0.84;76.31;101445.31;5080205;28;45331;-68
2021/12/22 08:12:41;;;;;;;;;52.75;40.00;;;;;0.77;76.06;101446.09;5059543;28;45746;-66
2021/12/22 08:15:07;;;;;;;;;59.00;45.50;;;;;0.80;76.42;101451.31;5048206;28;45305;-62
2021/12/22 08:17:34;;;;;;;;;57.00;41.75;;;;;0.86;75.83;101446.22;5049853;28;46701;-62
2021/12/22 08:19:59;;;;;;;;;55.00;42.00;;;;;0.83;75.93;101428.94;5056057;28;45442;-67
2021/12/22 08:22:26;;;;;;;;;51.25;39.25;;;;;0.90;76.51;101429.88;5055613;28;45390;-69
2021/12/22 08:24:52;;;;;;;;;56.50;39.75;;;;;0.97;76.36;101439.47;5058713;28;45344;-67
2021/12/22 08:27:21;;;;;;;;;58.75;46.00;;;;;1.01;76.15;101430.88;5056521;28;45467;-64
2021/12/22 08:29:47;;;;;;;;;59.50;44.50;;;;;1.06;76.23;101427.47;5058495;28;45383;-67
2021/12/22 08:32:13;;;;;;;;;54.75;43.00;;;;;1.09;76.50;101422.34;5060625;28;45340;-67
2021/12/22 08:34:41;;;;;;;;;58.25;46.50;;;;;1.15;76.65;101412.91;5049490;28;45288;-69
2021/12/22 08:39:53;;;;;;;;;63.50;45.75;;;;;1.30;76.37;101419.13;5044170;28;45363;-65
2021/12/22 08:42:19;;;;;;;;;61.25;41.25;;;;;1.40;75.86;101433.09;5038566;28;45776;-69
2021/12/22 08:44:45;;;;;;;;;56.00;43.00;;;;;1.43;75.72;101425.34;5038260;28;45381;-70
2021/12/22 08:47:10;;;;;;;;;54.25;40.75;;;;;1.52;75.28;101432.34;5055857;28;45377;-69
2021/12/22 08:49:36;;;;;;;;;57.25;40.00;;;;;1.55;75.65;101420.28;5058713;28;45258;-70
2021/12/22 08:52:02;;;;;;;;;56.00;41.50;;;;;1.60;75.69;101420.34;5058375;28;45295;-67
2021/12/22 08:54:27;;;;;;;;;58.00;42.75;;;;;1.63;74.91;101420.38;5051246;28;45653;-69
2021/12/22 08:56:55;;;;;;;;;60.00;44.25;;;;;1.66;75.13;101417.81;5043705;28;47064;-63
2021/12/22 08:59:22;;;;;;;;;56.50;43.00;;;;;1.67;75.66;101404.00;5056272;28;45515;-67
2021/12/22 09:01:48;;;;;;;;;59.50;45.25;;;;;1.74;75.03;101398.00;5047577;28;45376;-64
2021/12/22 09:04:13;;;;;;;;;59.00;42.50;;;;;1.75;74.89;101402.34;5058563;28;45467;-64
2021/12/22 09:06:39;;;;;;;;;52.50;39.00;;;;;1.79;74.82;101402.38;5053675;28;46800;-67
2021/12/22 09:09:06;;;;;;;;;60.00;44.25;;;;;1.77;74.48;101406.69;5057870;28;45380;-73
2021/12/22 09:11:32;;;;;;;;;64.50;46.75;;;;;1.79;73.67;101413.59;5051153;28;45448;-72
2021/12/22 09:13:57;;;;;;;;;58.25;44.50;;;;;1.85;74.67;101412.81;5052075;28;45588;-72
2021/12/22 09:16:22;;;;;;;;;56.50;40.00;;;;;1.81;73.81;101392.88;5030670;28;47029;-71
2021/12/22 09:18:48;;;;;;;;;53.00;41.75;;;;;1.86;75.04;101406.78;5057973;28;45460;-70
2021/12/22 09:21:16;;;;;;;;;56.50;44.25;;;;;1.88;73.93;101405.06;5074683;28;45268;-72
2021/12/22 09:23:41;;;;;;;;;56.50;39.00;;;;;1.93;74.13;101405.97;5068255;28;45354;-63
2021/12/22 09:26:07;;;;;;;;;65.75;45.50;;;;;1.98;75.10;101393.91;5057621;28;45339;-69
2021/12/22 09:28:33;;;;;;;;;53.50;40.25;;;;;2.02;74.95;101403.44;5057841;28;45232;-69
2021/12/22 09:31:00;;;;;;;;;61.50;48.50;;;;;1.99;73.83;101403.41;5057422;28;45376;-71
2021/12/22 09:33:25;;;;;;;;;55.00;43.50;;;;;1.99;74.22;101410.31;5056966;28;45345;-67
2021/12/22 09:35:52;;;;;;;;;56.00;41.25;;;;;1.92;73.31;101409.41;5055862;28;46392;-61
2021/12/22 09:38:18;;;;;;;;;60.25;43.25;;;;;1.93;73.35;101402.50;5056591;28;45501;-67
2021/12/22 09:40:45;;;;;;;;;61.50;42.25;;;;;1.66;73.76;101355.56;5057528;28;45335;-60
2021/12/22 09:43:11;;;;;;;;;54.25;40.00;;;;;1.88;73.61;101407.66;5057864;28;45416;-62
2021/12/22 09:45:43;;;;;;;;;52.50;40.25;;;;;1.93;73.58;101412.88;5057790;28;46055;-63
2021/12/22 09:52:15;;;;;;;;;62.00;46.00;;;;;1.98;73.80;101411.19;5059144;28;46044;-67
2021/12/22 09:53:44;;;;;;;;;59.00;43.50;;;;;2.08;74.79;101414.75;5059561;28;45422;-62
2021/12/22 09:56:15;;;;;;;;;57.25;42.25;;;;;2.14;73.58;101407.88;5057308;28;46364;-69
2021/12/22 09:58:43;;;;;;;;;56.00;44.00;;;;;2.22;73.10;101425.25;5058273;28;45364;-67
2021/12/22 10:01:10;;;;;;;;;63.50;46.50;;;;;2.23;73.11;101430.44;5056696;28;45235;-66
2021/12/22 10:03:36;;;;;;;;;60.25;43.00;;;;;2.28;72.35;101430.50;5057271;28;45236;-67
2021/12/22 10:06:02;;;;;;;;;54.25;42.25;;;;;2.31;73.44;101422.72;5040502;28;45378;-66
2021/12/22 10:08:28;;;;;;;;;57.50;46.75;;;;;2.39;72.19;101417.56;5059039;28;45447;-67
2021/12/22 10:11:12;;;;;;;;;61.50;45.00;;;;;2.43;72.31;101404.63;5056974;28;45422;-66
2021/12/22 10:13:41;;;;;;;;;63.00;45.75;;;;;2.50;72.08;101412.47;5057136;28;45331;-67
2021/12/22 10:16:12;;;;;;;;;56.75;39.00;;;;;2.47;71.81;101409.00;5056776;28;47003;-67
2021/12/22 10:18:38;;;;;;;;;53.75;43.50;;;;;2.50;71.85;101417.66;5057351;28;45391;-66
2021/12/22 10:21:21;;;;;;;;;64.50;45.75;;;;;2.54;71.75;101411.63;5056643;28;45440;-67
2021/12/22 10:23:49;;;;;;;;;41.25;35.75;;;;;2.62;70.80;101422.94;5057546;28;45309;-66
2021/12/22 10:26:18;;;;;;;;;56.75;43.75;;;;;2.60;71.01;101422.91;5056079;28;45506;-67
2021/12/22 10:28:55;;;;;;;;;51.75;35.75;;;;;2.62;70.95;101422.94;5056598;28;45319;-69
2021/12/22 10:31:45;;;;;;;;;56.50;39.00;;;;;2.64;71.57;101421.22;5056236;28;45252;-67
2021/12/22 10:34:18;;;;;;;;;53.25;41.50;;;;;2.70;70.29;101413.44;5056471;28;45406;-65
2021/12/22 10:36:50;;;;;;;;;61.50;45.00;;;;;2.72;71.26;101411.72;5056216;28;46118;-66
2021/12/22 10:39:21;;;;;;;;;55.00;41.50;;;;;2.74;70.63;101411.75;5056448;28;45405;-66
2021/12/22 10:41:47;;;;;;;;;54.50;40.75;;;;;2.74;70.78;101410.00;5039388;28;45356;-64
2021/12/22 10:44:12;;;;;;;;;55.75;44.75;;;;;2.75;70.59;101403.09;5057365;28;45512;-67
2021/12/22 10:46:37;;;;;;;;;60.75;46.50;;;;;2.82;70.06;101403.97;5055652;28;46280;-67
2021/12/22 10:49:23;;;;;;;;;56.50;40.25;;;;;2.93;69.82;101402.31;5037741;28;45329;-65
2021/12/22 10:52:00;;;;;;;;;59.75;43.00;;;;;2.93;70.06;101381.50;5056699;28;45425;-68
2021/12/22 10:54:34;;;;;;;;;58.75;40.25;;;;;3.01;69.28;101371.16;5042107;28;45221;-68
2021/12/22 10:57:03;;;;;;;;;60.25;42.25;;;;;3.00;69.21;101367.69;5058309;28;45299;-68
2021/12/22 10:59:45;;;;;;;;;54.75;42.00;;;;;2.96;67.97;101358.13;5062520;28;45328;-68
2021/12/22 11:02:18;;;;;;;;;60.75;47.50;;;;;2.93;68.92;101352.94;5063317;28;45371;-66
2021/12/22 11:04:44;;;;;;;;;70.50;53.00;;;;;2.89;69.13;101358.97;5058437;28;45354;-68
2021/12/22 11:07:22;;;;;;;;;62.25;46.00;;;;;2.92;68.95;101356.38;5056592;28;45386;-67
2021/12/22 11:09:47;;;;;;;;;58.00;46.75;;;;;2.91;69.59;101337.34;5056376;28;45173;-68
2021/12/22 11:12:16;;;;;;;;;58.25;43.25;;;;;2.89;68.79;101351.19;5056008;28;45686;-67
2021/12/22 11:14:47;;;;;;;;;65.50;48.50;;;;;2.85;69.24;101354.63;5056029;28;45478;-69
2021/12/22 11:17:19;;;;;;;;;62.75;47.25;;;;;2.86;69.31;101344.25;5037943;28;47698;-65
2021/12/22 11:19:58;;;;;;;;;55.75;45.25;;;;;2.89;68.69;101348.56;5037408;28;45457;-67
2021/12/22 11:22:53;;;;;;;;;59.25;45.00;;;;;2.90;68.68;101340.81;5056015;28;45387;-66
2021/12/22 11:25:23;;;;;;;;;60.50;46.25;;;;;2.92;69.21;101330.41;5055961;28;45364;-65
2021/12/22 11:27:58;;;;;;;;;61.75;46.25;;;;;2.95;69.13;101326.97;5054724;28;45648;-73
2021/12/22 11:30:26;;;;;;;;;70.25;52.50;;;;;2.91;69.21;101313.06;5035486;28;45386;-71
2021/12/22 11:32:54;;;;;;;;;73.75;56.25;;;;;2.90;68.06;101320.00;5057889;28;45253;-70
2021/12/22 11:35:20;;;;;;;;;64.50;47.50;;;;;2.86;69.04;101315.66;5039036;28;45335;-79
2021/12/22 11:37:45;;;;;;;;;65.25;49.75;;;;;2.85;69.12;101313.06;5056227;28;45346;-65